Metar Cercanos

 

LEPA - Palma De Mallorc, Spain
Distance from station: ONO 38km
Actualización: 22/11/2017 12:00
Parcialmente nuboso
Parcialmente nuboso
 Viento del OSO
Viento: OSO 9 km/h
Temperatura: 19°C
Rocío: 13°C
Humedad: 68%
Barómetro: 1018 hPa
Clouds: Parcialmente nuboso
Visibility: 10 km
Cloud details: Parcialmente nuboso 762 m
2017/11/22 11:00 LEPA 221100Z 24005KT 190V280 9999 SCT025 19/13 Q1018 NOSIG
LEMH - Mahon/Menorca Is, Spain
Distance from station: ENE 105km
Actualización: 22/11/2017 12:00
Parcialmente nuboso
Parcialmente nuboso
 Viento del S
Viento: S 15 km/h
Temperatura: 18°C
Rocío: 12°C
Humedad: 68%
Barómetro: 1018 hPa
Clouds: Parcialmente nuboso
Visibility: 10 km
Cloud details: Parcialmente nuboso 792 m
2017/11/22 11:00 LEMH 221100Z 19008KT 160V230 9999 SCT026 18/12 Q1018
 
LEIB - Ibiza/Es Codola, Spain
Distance from station: OSO 165km
Actualización: 22/11/2017 12:00
Few Clouds
Few Clouds
 Viento del S
Viento: S 13 km/h
Temperatura: 20°C
Rocío: 12°C
Humedad: 60%
Barómetro: 1017 hPa
Clouds: Few Clouds
Visibility: 10 km
Cloud details: Few Clouds 762 m
2017/11/22 11:00 LEIB 221100Z 17007KT 140V200 9999 FEW025 20/12 Q1017 NOSIG
LEBL - Barcelona Airpor, Spain
Distance from station: NNO 225km
Actualización: 22/11/2017 12:00
Few Clouds
Few Clouds
 Viento del NO
Viento: NO 7 km/h
Temperatura: 16°C
Rocío: 9°C
Humedad: 63%
Barómetro: 1017 hPa
Clouds: Few Clouds
Visibility: 10 km
Cloud details: Few Clouds 671 m
2017/11/22 11:00 LEBL 221100Z 32004KT 280V010 9999 FEW022 16/09 Q1017 NOSIG
 
LEVC - Valencia (civ/Mi, Spain
Distance from station: NO 188km
Actualización: 22/11/2017 12:00
Despejado
Despejado
 Viento del calm
Viento: Calma
Temperatura: 17°C
Rocío: -2°C
Humedad: 27%
Barómetro: 1017 hPa
Resumen: Despejado
Visibility: greater than 10 km
2017/11/22 11:00 LEVC 221100Z 00000KT CAVOK 17/M02 Q1017 NOSIG
LEGE - Gerona/Costa Bra, Spain
Distance from station: N 276km
Actualización: 22/11/2017 12:00
Despejado
Despejado
 Viento del SSO
Viento: SSO 17 km/h
Temperatura: 16°C
Rocío: 8°C
Humedad: 59%
Barómetro: 1016 hPa
Resumen: Despejado
Visibility: greater than 10 km
2017/11/22 11:00 LEGE 221100Z 20009KT 180V250 CAVOK 16/08 Q1016
 
LEAL - Alicante/El Alte, Spain
Distance from station: OSO 344km
Actualización: 22/11/2017 12:00
Despejado
Despejado
 Viento del varies
Viento: varies 2 km/h
Temperatura: 18°C
Rocío: 6°C
Humedad: 46%
Barómetro: 1017 hPa
Resumen: Despejado
Visibility: greater than 10 km
2017/11/22 11:00 LEAL 221100Z VRB01KT CAVOK 18/06 Q1017 NOSIG
LEAM - Almeria Airport, Spain
Distance from station: SSO 56km
Actualización: 22/11/2017 12:00
Despejado
Despejado
 Viento del SSO
Viento: SSO 13 km/h
Temperatura: 18°C
Rocío: 10°C
Humedad: 60%
Barómetro: 1017 hPa
Resumen: Despejado
Visibility: greater than 10 km
2017/11/22 11:00 LEAM 221100Z 21007KT CAVOK 18/10 Q1017
 
LEZG - Zaragoza (mil/Ci, Spain
Distance from station: NO 431km
Actualización: 22/11/2017 12:00
Despejado
Despejado
 Viento del varies
Viento: varies 4 km/h
Temperatura: 9°C
Rocío: 1°C
Humedad: 58%
Barómetro: 1017 hPa
Resumen: Despejado
Visibility: greater than 10 km
2017/11/22 11:00 LEZG 221100Z VRB02KT CAVOK 09/01 Q1017
LEMD - Madrid/Barajas, Spain
Distance from station: ONO 234km
Actualización: 22/11/2017 12:00
Despejado
Despejado
 Viento del SO
Viento: SO 2 km/h
Temperatura: 10°C
Rocío: 0°C
Humedad: 50%
Barómetro: 1018 hPa
Resumen: Despejado
Visibility: greater than 10 km
2017/11/22 11:00 LEMD 221100Z 22001KT CAVOK 10/00 Q1018 NOSIG
 
LEGR - Granada Airport, Spain
Distance from station: OSO 62km
Actualización: 22/11/2017 12:00
Despejado
Despejado
 Viento del calm
Viento: Calma
Temperatura: 12°C
Rocío: 1°C
Humedad: 47%
Barómetro: 1019 hPa
Resumen: Despejado
Visibility: greater than 10 km
2017/11/22 11:00 LEGR 221100Z 00000KT CAVOK 12/01 Q1019
LEMG - Malaga (civ/Mil), Spain
Distance from station: OSO 227km
Actualización: 22/11/2017 12:00
Despejado
Despejado
 Viento del N
Viento: N 2 km/h
Temperatura: 18°C
Rocío: 6°C
Humedad: 46%
Barómetro: 1018 hPa
Resumen: Despejado
Visibility: greater than 10 km
2017/11/22 11:00 LEMG 221100Z 01001KT CAVOK 18/06 Q1018 NOSIG
 
LEZL - Sevilla (civ/Mil, Spain
Distance from station: S 318km
Actualización: 22/11/2017 12:00
Despejado
Despejado
 Viento del varies
Viento: varies 4 km/h
Temperatura: 19°C
Rocío: 4°C
Humedad: 37%
Barómetro: 1017 hPa
Resumen: Despejado
Visibility: greater than 10 km
2017/11/22 11:00 LEZL 221100Z VRB02KT CAVOK 19/04 Q1017 NOSIG
LEVT - Vitoria, Spain
Distance from station: NO 226km
Actualización: 22/11/2017 12:00
Despejado
Despejado
 Viento del SO
Viento: SO 17 km/h
Temperatura: 11°C
Rocío: 1°C
Humedad: 50%
Barómetro: 1015 hPa
Resumen: Despejado
Visibility: greater than 10 km
2017/11/22 11:00 LEVT 221100Z 23009KT CAVOK 11/01 Q1015
 
LEBB - Bilbao/Sondica, Spain
Distance from station: NNO 235km
Actualización: 22/11/2017 12:00
Despejado
Despejado
 Viento del varies
Viento: varies 7 km/h
Temperatura: 21°C
Rocío: 2°C
Humedad: 29%
Barómetro: 1011 hPa
Resumen: Despejado
Visibility: greater than 10 km
2017/11/22 11:00 LEBB 221100Z VRB04KT CAVOK 21/02 Q1011 NOSIG
LESO - San Sebastian/Fu, Spain
Distance from station: N 231km
Actualización: 22/11/2017 12:00
Despejado
Despejado
 Viento del S
Viento: S 22 km/h
Temperatura: 22°C
Rocío: 1°C
Humedad: 25%
Barómetro: 1011 hPa
Resumen: Despejado
Visibility: greater than 10 km
2017/11/22 11:00 LESO 221100Z 19012KT 170V230 CAVOK 22/01 Q1011
 
LEVD - Valladolid(Mil/C, Spain
Distance from station: ONO 239km
Actualización: 22/11/2017 12:00
Despejado
Despejado
 Viento del SSE
Viento: SSE 9 km/h
Temperatura: 10°C
Sensación frio: 9°C
Rocío: -3°C
Humedad: 40%
Barómetro: 1015 hPa
Resumen: Despejado
Visibility: greater than 10 km
2017/11/22 11:00 LEVD 221100Z 15005KT 100V190 CAVOK 10/M03 Q1015
LESA - Salamanca (civ/M, Spain
Distance from station: ONO 349km
Actualización: 22/11/2017 12:00
Despejado
Despejado
 Viento del SSO
Viento: SSO 19 km/h
Temperatura: 17°C
Rocío: -1°C
Humedad: 30%
Barómetro: 1015 hPa
Resumen: Despejado
Visibility: greater than 10 km
2017/11/22 11:00 LESA 221100Z 21010KT 160V250 CAVOK 17/M01 Q1015
 
LEXJ - Santander/Paraya, Spain
Distance from station: NNO 247km
Actualización: 22/11/2017 12:00
Despejado
Despejado
 Viento del SSO
Viento: SSO 30 km/h, Racha: 54 km/h
Temperatura: 21°C
Rocío: 2°C
Humedad: 29%
Barómetro: 1008 hPa
Resumen: Despejado
Visibility: greater than 10 km
2017/11/22 11:00 LEXJ 221100Z 21016G29KT 170V250 CAVOK 21/02 Q1008
LEAS - Asturias/Aviles, Spain
Distance from station: NO 214km
Actualización: 22/11/2017 12:00
Despejado
Despejado
 Viento del SO
Viento: SO 6 km/h
Temperatura: 20°C
Rocío: 4°C
Humedad: 35%
Barómetro: 1007 hPa
Resumen: Despejado
Visibility: greater than 10 km
2017/11/22 11:00 LEAS 221100Z 22003KT 190V250 CAVOK 20/04 Q1007 NOSIG
 
LECO - La Coruna/Alvedr, Spain
Distance from station: ONO 222km
Actualización: 22/11/2017 12:00
Few Clouds
Few Clouds
 Viento del S
Viento: S 22 km/h, Racha: 41 km/h
Temperatura: 17°C
Rocío: 8°C
Humedad: 56%
Barómetro: 1006 hPa
Clouds: Few Clouds
Visibility: 10 km
Cloud details: Few Clouds 1463 m
2017/11/22 11:00 LECO 221100Z 19012G22KT 150V240 9999 FEW048 17/08 Q1006 NOSIG
LEVX - Vigo/Peinador, Spain
Distance from station: O 214km
Actualización: 22/11/2017 12:00
Despejado
Despejado
 Viento del S
Viento: S 22 km/h
Temperatura: 16°C
Rocío: 7°C
Humedad: 55%
Barómetro: 1009 hPa
Resumen: Despejado
Visibility: greater than 10 km
2017/11/22 11:00 LEVX 221100Z 18012KT 110V230 CAVOK 16/07 Q1009 TEMPO RA